METAR Data
IDs: Format: Raw Decoded Include TAF

Data at: 1519 UTC 27 Nov 2021

METAR for:EDVE (Braunschweig Arpt, NI, DE)
Text:EDVE 271450Z 18003KT 140V220 9999 BKN037 04/02 Q0991
Temperature: 4.0°C ( 39°F)
Dewpoint: 2.0°C ( 36°F) [RH = 87%]
Pressure (altimeter):29.26 inches Hg ( 991.0 mb)
Winds:from the S (180 degrees) at 3 MPH (3 knots; 1.5 m/s)
Visibility:6 or more sm (10+ km)
Ceiling:3700 feet AGL
Clouds: broken clouds at 3700 feet AGL